createdAt,value
2018-12-01T00:01:48.012Z,5.10
2018-12-01T00:04:17.357Z,5.20
2018-12-01T00:06:46.217Z,5.10
2018-12-01T00:09:15.168Z,5.10
2018-12-01T00:11:47.375Z,5.10
2018-12-01T00:14:16.289Z,5.20
2018-12-01T00:16:45.237Z,5.20
2018-12-01T00:19:14.097Z,5.20
2018-12-01T00:21:43.165Z,5.20
2018-12-01T00:24:12.220Z,5.20
2018-12-01T00:26:41.229Z,5.20
2018-12-01T00:29:11.606Z,5.20
2018-12-01T00:31:41.376Z,5.20
2018-12-01T00:34:11.590Z,5.20
2018-12-01T00:36:43.973Z,5.20
2018-12-01T00:39:13.445Z,5.10
2018-12-01T00:41:49.232Z,5.10
2018-12-01T00:44:19.958Z,5.10
2018-12-01T00:46:48.830Z,5.10
2018-12-01T00:49:17.970Z,5.20
2018-12-01T00:53:06.072Z,5.10
2018-12-01T00:58:11.310Z,5.10
2018-12-01T01:00:40.344Z,5.20
2018-12-01T01:03:09.216Z,5.10
2018-12-01T01:05:39.125Z,5.10
2018-12-01T01:08:08.080Z,5.10
2018-12-01T01:10:38.172Z,5.10
2018-12-01T01:13:08.801Z,5.10
2018-12-01T01:15:38.182Z,5.10
2018-12-01T01:18:08.479Z,5.10
2018-12-01T01:20:37.315Z,5.10
2018-12-01T01:23:06.831Z,5.10
2018-12-01T01:25:36.144Z,5.10
2018-12-01T01:28:05.386Z,5.10
2018-12-01T01:30:34.353Z,5.10
2018-12-01T01:33:14.176Z,5.10
2018-12-01T01:35:44.806Z,5.10
2018-12-01T01:38:13.628Z,5.10
2018-12-01T01:40:42.465Z,5.10
2018-12-01T01:43:11.291Z,5.10
2018-12-01T01:45:41.243Z,5.10
2018-12-01T01:48:12.488Z,5.10
2018-12-01T01:50:41.724Z,5.20
2018-12-01T01:53:10.953Z,5.20
2018-12-01T01:55:40.732Z,5.20
2018-12-01T01:58:11.230Z,5.10
2018-12-01T02:00:41.110Z,5.10
2018-12-01T02:03:10.102Z,5.10
2018-12-01T02:05:38.928Z,5.10
2018-12-01T02:08:07.758Z,5.10
2018-12-01T02:10:36.599Z,5.10
2018-12-01T02:13:10.178Z,5.10
2018-12-01T02:15:39.157Z,5.00
2018-12-01T02:18:09.685Z,5.10
2018-12-01T02:20:38.574Z,5.10
2018-12-01T02:23:07.669Z,5.20
2018-12-01T02:25:36.493Z,5.20
2018-12-01T02:28:05.377Z,5.20
2018-12-01T02:30:34.186Z,5.20
2018-12-01T02:33:04.421Z,5.20
2018-12-01T02:35:33.409Z,5.20
2018-12-01T02:38:02.950Z,5.20
2018-12-01T02:40:32.371Z,5.10
2018-12-01T02:43:01.610Z,5.10
2018-12-01T02:45:41.226Z,5.10
2018-12-01T02:48:11.272Z,5.10
2018-12-01T02:50:40.825Z,5.10
2018-12-01T02:53:09.761Z,5.10
2018-12-01T02:55:39.698Z,5.10
2018-12-01T02:58:09.510Z,5.10
2018-12-01T03:00:38.323Z,5.10
2018-12-01T03:03:07.484Z,5.10
2018-12-01T03:05:36.296Z,5.00
2018-12-01T03:08:05.099Z,5.00
2018-12-01T03:10:34.615Z,5.00
2018-12-01T03:13:04.355Z,5.00
2018-12-01T03:15:33.154Z,5.00
2018-12-01T03:18:02.372Z,5.00
2018-12-01T03:20:32.186Z,5.00
2018-12-01T03:23:01.678Z,5.10
2018-12-01T03:25:31.306Z,5.00
2018-12-01T03:28:00.427Z,5.00
2018-12-01T03:30:29.399Z,5.00
2018-12-01T03:32:58.683Z,5.00
2018-12-01T03:35:27.797Z,5.00
2018-12-01T03:37:56.958Z,5.00
2018-12-01T03:40:25.897Z,5.00
2018-12-01T03:42:54.790Z,5.00
2018-12-01T03:45:24.063Z,5.00
2018-12-01T03:47:52.918Z,5.00
2018-12-01T03:50:23.049Z,5.00
2018-12-01T03:52:53.149Z,5.10
2018-12-01T03:55:30.218Z,5.10
2018-12-01T03:58:00.717Z,5.10
2018-12-01T04:00:31.261Z,5.10
2018-12-01T04:03:00.777Z,5.10
2018-12-01T04:05:31.032Z,5.20
2018-12-01T04:08:01.610Z,5.20
2018-12-01T04:10:30.772Z,5.20
2018-12-01T04:12:59.653Z,5.20
2018-12-01T04:15:28.606Z,5.20
2018-12-01T04:17:57.444Z,5.20
2018-12-01T04:20:26.242Z,5.20
2018-12-01T04:22:55.108Z,5.20
2018-12-01T04:25:24.010Z,5.20
2018-12-01T04:27:53.627Z,5.20
2018-12-01T04:30:24.741Z,5.20
2018-12-01T04:32:54.476Z,5.20
2018-12-01T04:35:24.722Z,5.20
2018-12-01T04:37:57.630Z,5.20
2018-12-01T04:40:26.561Z,5.20
2018-12-01T04:42:55.429Z,5.20
2018-12-01T04:45:24.249Z,5.20
2018-12-01T04:47:53.177Z,5.20
2018-12-01T04:50:21.988Z,5.20
2018-12-01T04:52:51.042Z,5.20
2018-12-01T04:55:24.082Z,5.20
2018-12-01T04:57:53.252Z,5.20
2018-12-01T05:00:22.421Z,5.20
2018-12-01T05:02:51.241Z,5.20
2018-12-01T05:05:21.787Z,5.20
2018-12-01T05:07:51.121Z,5.20
2018-12-01T05:10:20.981Z,5.20
2018-12-01T05:12:49.861Z,5.20
2018-12-01T05:15:19.481Z,5.20
2018-12-01T05:17:48.389Z,5.20
2018-12-01T05:21:25.653Z,5.20
2018-12-01T05:23:54.745Z,5.30
2018-12-01T05:26:23.621Z,5.30
2018-12-01T05:28:52.504Z,5.30
2018-12-01T05:31:21.337Z,5.20
2018-12-01T05:33:50.163Z,5.30
2018-12-01T05:36:32.279Z,5.20
2018-12-01T05:39:01.125Z,5.20
2018-12-01T05:41:30.347Z,5.30
2018-12-01T05:44:00.224Z,5.30
2018-12-01T05:46:29.495Z,5.30
2018-12-01T05:48:58.336Z,5.30
2018-12-01T05:51:27.685Z,5.30
2018-12-01T05:53:56.729Z,5.30
2018-12-01T05:56:25.553Z,5.30
2018-12-01T05:58:54.581Z,5.30
2018-12-01T06:01:24.480Z,5.30
2018-12-01T06:03:53.463Z,5.30
2018-12-01T06:06:26.772Z,5.30
2018-12-01T06:08:55.630Z,5.30
2018-12-01T06:11:25.416Z,5.30
2018-12-01T06:13:54.297Z,5.30
2018-12-01T06:16:23.446Z,5.30
2018-12-01T06:18:53.154Z,5.30
2018-12-01T06:21:23.160Z,5.30
2018-12-01T06:23:51.968Z,5.40
2018-12-01T06:26:20.801Z,5.30
2018-12-01T06:28:50.215Z,5.40
2018-12-01T06:31:19.150Z,5.30
2018-12-01T06:33:49.405Z,5.30
2018-12-01T06:36:18.248Z,5.30
2018-12-01T06:38:48.169Z,5.30
2018-12-01T06:41:17.050Z,5.40
2018-12-01T06:43:46.875Z,5.40
2018-12-01T06:46:15.801Z,5.50
2018-12-01T06:48:45.413Z,5.50
2018-12-01T06:51:27.364Z,5.50
2018-12-01T06:53:56.195Z,5.50
2018-12-01T06:56:25.152Z,5.50
2018-12-01T06:58:59.192Z,5.50
2018-12-01T07:01:28.263Z,5.50
2018-12-01T07:03:57.114Z,5.50
2018-12-01T07:06:26.134Z,5.50
2018-12-01T07:08:55.438Z,5.50
2018-12-01T07:11:24.320Z,5.50
2018-12-01T07:13:53.327Z,5.60
2018-12-01T07:16:22.214Z,5.60
2018-12-01T07:19:02.043Z,5.70
2018-12-01T07:21:31.538Z,5.60
2018-12-01T07:24:00.491Z,5.70
2018-12-01T07:26:29.883Z,5.70
2018-12-01T07:28:58.733Z,5.70
2018-12-01T07:31:27.652Z,5.70
2018-12-01T07:33:57.722Z,5.70
2018-12-01T07:36:28.650Z,5.70
2018-12-01T07:38:57.646Z,5.70
2018-12-01T07:41:26.561Z,5.70
2018-12-01T07:43:55.441Z,5.70
2018-12-01T07:46:27.675Z,5.70
2018-12-01T07:48:56.738Z,5.70
2018-12-01T07:51:25.633Z,5.70
2018-12-01T07:53:55.006Z,5.80
2018-12-01T07:56:25.157Z,5.80
2018-12-01T07:58:54.152Z,5.70
2018-12-01T08:01:23.343Z,5.80
2018-12-01T08:03:53.136Z,5.80
2018-12-01T08:06:25.218Z,5.80
2018-12-01T08:08:54.520Z,5.80
2018-12-01T08:11:24.067Z,5.80
2018-12-01T08:13:54.223Z,5.80
2018-12-01T08:16:23.512Z,5.90
2018-12-01T08:18:58.285Z,5.90
2018-12-01T08:21:28.571Z,5.90
2018-12-01T08:23:59.383Z,5.90
2018-12-01T08:26:28.292Z,6.00
2018-12-01T08:28:58.228Z,6.00
2018-12-01T08:31:27.968Z,6.00
2018-12-01T08:34:00.677Z,6.00
2018-12-01T08:36:30.532Z,6.00
2018-12-01T08:38:59.578Z,6.00
2018-12-01T08:41:28.693Z,6.00
2018-12-01T08:43:58.164Z,6.00
2018-12-01T08:46:27.006Z,6.00
2018-12-01T08:48:56.858Z,6.00
2018-12-01T08:51:27.195Z,6.10
2018-12-01T08:53:57.152Z,6.10
2018-12-01T08:56:32.230Z,6.10
2018-12-01T08:59:02.228Z,6.10
2018-12-01T09:01:40.318Z,6.20
2018-12-01T09:04:10.220Z,6.20
2018-12-01T09:06:40.204Z,6.30
2018-12-01T09:09:09.251Z,6.20
2018-12-01T09:13:01.588Z,6.30
2018-12-01T09:15:27.926Z,6.20
2018-12-01T09:17:56.868Z,6.20
2018-12-01T09:20:27.395Z,6.30
2018-12-01T09:22:56.685Z,6.40
2018-12-01T09:25:25.632Z,6.40
2018-12-01T09:27:57.985Z,6.40
2018-12-01T09:30:27.999Z,6.40
2018-12-01T09:32:59.103Z,6.50
2018-12-01T09:35:28.546Z,6.50
2018-12-01T09:39:17.003Z,6.50
2018-12-01T09:41:47.172Z,6.50
2018-12-01T09:44:17.324Z,6.50
2018-12-01T09:46:45.027Z,6.60
2018-12-01T09:49:14.368Z,6.60
2018-12-01T09:51:45.756Z,6.60
2018-12-01T09:54:15.616Z,6.50
2018-12-01T09:56:45.499Z,6.50
2018-12-01T09:59:14.455Z,6.40
2018-12-01T10:01:43.757Z,6.40
2018-12-01T10:04:13.014Z,6.40
2018-12-01T10:06:42.191Z,6.30
2018-12-01T10:09:11.426Z,6.40
2018-12-01T10:11:40.356Z,6.40
2018-12-01T10:14:11.432Z,6.50
2018-12-01T10:16:41.396Z,6.50
2018-12-01T10:19:10.311Z,6.40
2018-12-01T10:21:39.209Z,6.40
2018-12-01T10:24:08.498Z,6.40
2018-12-01T10:26:37.430Z,6.40
2018-12-01T10:29:06.332Z,6.40
2018-12-01T10:31:35.340Z,6.40
2018-12-01T10:34:06.317Z,6.40
2018-12-01T10:36:35.994Z,6.40
2018-12-01T10:39:07.637Z,6.50
2018-12-01T10:41:38.579Z,6.40
2018-12-01T10:44:09.326Z,6.30
2018-12-01T10:46:44.168Z,6.40
2018-12-01T10:49:13.407Z,6.50
2018-12-01T10:51:42.397Z,6.40
2018-12-01T10:54:12.713Z,6.40
2018-12-01T10:56:45.834Z,6.50
2018-12-01T10:59:20.052Z,6.50
2018-12-01T11:01:54.069Z,6.60
2018-12-01T11:04:29.598Z,6.60
2018-12-01T11:07:00.734Z,6.60
2018-12-01T11:09:34.576Z,6.60
2018-12-01T11:12:04.571Z,6.60
2018-12-01T11:14:33.681Z,6.60
2018-12-01T11:17:10.814Z,6.60
2018-12-01T11:19:40.885Z,6.60
2018-12-01T11:22:18.541Z,6.60
2018-12-01T11:24:50.773Z,6.50
2018-12-01T11:27:19.655Z,6.50
2018-12-01T11:29:49.578Z,6.50
2018-12-01T11:32:18.592Z,6.50
2018-12-01T11:34:49.783Z,6.40
2018-12-01T11:37:19.587Z,6.40
2018-12-01T11:39:49.683Z,6.40
2018-12-01T11:42:18.913Z,6.50
2018-12-01T11:44:56.813Z,6.60
2018-12-01T11:47:21.435Z,6.60
2018-12-01T11:49:51.306Z,6.70
2018-12-01T11:52:31.735Z,6.80
2018-12-01T11:55:00.679Z,6.80
2018-12-01T11:57:30.589Z,6.80
2018-12-01T12:00:00.978Z,6.80
2018-12-01T12:02:30.693Z,6.70
2018-12-01T12:04:59.710Z,6.70
2018-12-01T12:07:40.525Z,6.70
2018-12-01T12:10:10.653Z,6.70
2018-12-01T12:12:42.837Z,6.70
2018-12-01T12:15:12.117Z,6.70
2018-12-01T12:17:49.188Z,6.60
2018-12-01T12:20:20.582Z,6.70
2018-12-01T12:22:52.725Z,6.70
2018-12-01T12:25:21.577Z,6.70
2018-12-01T12:27:50.875Z,6.80
2018-12-01T12:30:25.946Z,6.80
2018-12-01T12:32:52.181Z,6.90
2018-12-01T12:35:22.726Z,6.80
2018-12-01T12:37:52.467Z,6.90
2018-12-01T12:40:28.672Z,6.80
2018-12-01T12:43:03.118Z,6.80
2018-12-01T12:45:33.778Z,6.80
2018-12-01T12:48:04.331Z,6.80
2018-12-01T12:50:33.245Z,6.80
2018-12-01T12:53:03.142Z,6.80
2018-12-01T12:55:33.891Z,6.80
2018-12-01T12:58:03.219Z,6.80
2018-12-01T13:00:32.696Z,6.90
2018-12-01T13:03:03.915Z,6.80
2018-12-01T13:05:43.228Z,7.10
2018-12-01T13:08:15.387Z,7.40
2018-12-01T13:10:45.492Z,7.50
2018-12-01T13:13:15.221Z,7.40
2018-12-01T13:15:47.374Z,7.30
2018-12-01T13:18:23.643Z,7.30
2018-12-01T13:20:59.615Z,7.20
2018-12-01T13:23:28.694Z,7.20
2018-12-01T13:26:02.558Z,7.10
2018-12-01T13:28:33.661Z,7.10
2018-12-01T13:31:03.747Z,7.10
2018-12-01T13:33:32.991Z,7.00
2018-12-01T13:36:02.289Z,7.10
2018-12-01T13:38:38.263Z,7.20
2018-12-01T13:41:07.348Z,7.10
2018-12-01T13:43:38.984Z,7.20
2018-12-01T13:46:09.090Z,7.20
2018-12-01T13:48:41.774Z,7.20
2018-12-01T13:51:11.207Z,7.20
2018-12-01T13:53:40.917Z,7.20
2018-12-01T13:56:11.315Z,7.30
2018-12-01T13:58:40.961Z,7.30
2018-12-01T14:01:09.910Z,7.20
2018-12-01T14:03:47.297Z,7.10
2018-12-01T14:06:17.099Z,7.00
2018-12-01T14:08:46.118Z,6.90
2018-12-01T14:11:16.042Z,6.80
2018-12-01T14:13:45.075Z,6.70
2018-12-01T14:16:14.715Z,6.70
2018-12-01T14:19:04.129Z,6.70
2018-12-01T14:21:34.748Z,6.70
2018-12-01T14:24:04.376Z,6.70
2018-12-01T14:26:37.130Z,6.70
2018-12-01T14:29:09.509Z,6.80
2018-12-01T14:31:39.734Z,6.80
2018-12-01T14:34:10.710Z,6.80
2018-12-01T14:36:49.626Z,6.80
2018-12-01T14:39:19.249Z,6.70
2018-12-01T14:41:50.352Z,6.70
2018-12-01T14:44:22.258Z,6.60
2018-12-01T14:46:57.296Z,6.60
2018-12-01T14:49:27.462Z,6.50
2018-12-01T14:52:07.360Z,6.50
2018-12-01T14:54:38.736Z,6.50
2018-12-01T14:57:09.078Z,6.50
2018-12-01T14:59:38.758Z,6.50
2018-12-01T15:02:07.968Z,6.50
2018-12-01T15:04:37.426Z,6.50
2018-12-01T15:07:08.229Z,6.50
2018-12-01T15:09:37.144Z,6.40
2018-12-01T15:12:07.262Z,6.40
2018-12-01T15:15:56.557Z,6.40
2018-12-01T15:18:29.314Z,6.30
2018-12-01T15:21:10.127Z,6.30
2018-12-01T15:23:40.638Z,6.30
2018-12-01T15:26:10.680Z,6.30
2018-12-01T15:28:43.235Z,6.30
2018-12-01T15:31:14.985Z,6.30
2018-12-01T15:33:47.790Z,6.20
2018-12-01T15:36:18.885Z,6.10
2018-12-01T15:38:49.778Z,6.10
2018-12-01T15:41:20.700Z,6.20
2018-12-01T15:43:50.498Z,6.20
2018-12-01T15:46:21.596Z,6.20
2018-12-01T15:48:51.433Z,6.30
2018-12-01T15:51:20.664Z,6.30
2018-12-01T15:53:52.677Z,6.30
2018-12-01T15:56:23.338Z,6.20
2018-12-01T16:00:13.114Z,6.30
2018-12-01T16:02:51.657Z,6.20
2018-12-01T16:05:22.571Z,6.20
2018-12-01T16:08:06.420Z,6.10
2018-12-01T16:10:35.693Z,6.10
2018-12-01T16:13:09.917Z,6.10
2018-12-01T16:15:41.603Z,6.20
2018-12-01T16:18:15.616Z,6.20
2018-12-01T16:20:45.206Z,6.20
2018-12-01T16:23:14.231Z,6.20
2018-12-01T16:25:45.094Z,6.20
2018-12-01T16:28:16.262Z,6.20
2018-12-01T16:30:46.383Z,6.30
2018-12-01T16:33:16.895Z,6.30
2018-12-01T16:35:46.667Z,6.30
2018-12-01T16:38:22.448Z,6.30
2018-12-01T16:41:04.017Z,6.30
2018-12-01T16:44:55.439Z,6.30
2018-12-01T16:47:25.631Z,6.30
2018-12-01T16:49:56.550Z,6.40
2018-12-01T16:52:31.766Z,6.40
2018-12-01T16:55:01.788Z,6.40
2018-12-01T16:57:31.542Z,6.40
2018-12-01T17:00:01.689Z,6.30
2018-12-01T17:02:30.591Z,6.30
2018-12-01T17:05:00.902Z,6.30
2018-12-01T17:07:33.520Z,6.40
2018-12-01T17:10:02.780Z,6.40
2018-12-01T17:12:34.196Z,6.40
2018-12-01T17:15:04.287Z,6.40
2018-12-01T17:17:35.237Z,6.40
2018-12-01T17:20:05.574Z,6.40
2018-12-01T17:22:35.235Z,6.30
2018-12-01T17:25:06.989Z,6.30
2018-12-01T17:27:37.163Z,6.30
2018-12-01T17:30:12.806Z,6.30
2018-12-01T17:32:43.673Z,6.30
2018-12-01T17:35:21.835Z,6.40
2018-12-01T17:37:52.453Z,6.40
2018-12-01T17:41:34.701Z,6.30
2018-12-01T17:44:08.169Z,6.30
2018-12-01T17:46:42.072Z,6.30
2018-12-01T17:49:11.353Z,6.40
2018-12-01T17:51:41.323Z,6.40
2018-12-01T17:54:27.494Z,6.30
2018-12-01T17:56:57.901Z,6.30
2018-12-01T17:59:30.505Z,6.20
2018-12-01T18:02:01.598Z,6.20
2018-12-01T18:04:31.307Z,6.30
2018-12-01T18:07:00.687Z,6.30
2018-12-01T18:09:30.584Z,6.30
2018-12-01T18:12:01.194Z,6.30
2018-12-01T18:14:30.145Z,6.30
2018-12-01T18:17:00.602Z,6.30
2018-12-01T18:19:29.667Z,6.40
2018-12-01T18:22:00.402Z,6.40
2018-12-01T18:24:30.263Z,6.40
2018-12-01T18:27:00.109Z,6.40
2018-12-01T18:29:30.571Z,6.40
2018-12-01T18:32:02.704Z,6.40
2018-12-01T18:34:31.735Z,6.40
2018-12-01T18:37:00.656Z,6.40
2018-12-01T18:39:31.045Z,6.40
2018-12-01T18:42:00.677Z,6.40
2018-12-01T18:44:31.381Z,6.50
2018-12-01T18:47:02.356Z,6.40
2018-12-01T18:49:32.915Z,6.50
2018-12-01T18:52:02.263Z,6.50
2018-12-01T18:54:32.233Z,6.60
2018-12-01T18:57:03.184Z,6.60
2018-12-01T18:59:32.634Z,6.60
2018-12-01T19:02:10.682Z,6.60
2018-12-01T19:04:44.093Z,6.60
2018-12-01T19:07:16.688Z,6.60
2018-12-01T19:09:47.645Z,6.50
2018-12-01T19:12:18.150Z,6.50
2018-12-01T19:14:47.452Z,6.60
2018-12-01T19:17:18.115Z,6.50
2018-12-01T19:19:48.342Z,6.50
2018-12-01T19:22:19.406Z,6.60
2018-12-01T19:24:49.383Z,6.60
2018-12-01T19:27:18.394Z,6.60
2018-12-01T19:29:49.066Z,6.60
2018-12-01T19:32:18.273Z,6.60
2018-12-01T19:34:48.316Z,6.70
2018-12-01T19:37:18.709Z,6.70
2018-12-01T19:39:50.148Z,6.70
2018-12-01T19:42:22.619Z,6.80
2018-12-01T19:44:52.403Z,6.80
2018-12-01T19:47:29.930Z,6.80
2018-12-01T19:50:01.177Z,6.80
2018-12-01T19:52:31.680Z,6.80
2018-12-01T19:55:01.214Z,6.80
2018-12-01T19:57:30.350Z,6.80
2018-12-01T19:59:59.643Z,6.80
2018-12-01T20:02:31.784Z,6.80
2018-12-01T20:05:02.165Z,6.80
2018-12-01T20:07:34.192Z,6.80
2018-12-01T20:10:04.354Z,6.90
2018-12-01T20:12:34.365Z,6.90
2018-12-01T20:15:05.660Z,6.90
2018-12-01T20:17:36.660Z,6.90
2018-12-01T20:20:07.374Z,6.80
2018-12-01T20:22:38.140Z,6.80
2018-12-01T20:25:10.834Z,6.80
2018-12-01T20:27:41.412Z,6.80
2018-12-01T20:30:14.869Z,6.70
2018-12-01T20:32:48.852Z,6.70
2018-12-01T20:35:23.874Z,6.70
2018-12-01T20:38:11.644Z,6.70
2018-12-01T20:40:41.669Z,6.60
2018-12-01T20:43:10.549Z,6.60
2018-12-01T20:45:41.241Z,6.60
2018-12-01T20:48:10.204Z,6.60
2018-12-01T20:50:40.480Z,6.60
2018-12-01T20:53:09.959Z,6.60
2018-12-01T20:55:42.937Z,6.70
2018-12-01T20:58:13.238Z,6.70
2018-12-01T21:00:43.539Z,6.70
2018-12-01T21:03:13.538Z,6.70
2018-12-01T21:05:43.366Z,6.70
2018-12-01T21:08:13.528Z,6.80
2018-12-01T21:10:47.261Z,6.80
2018-12-01T21:13:16.115Z,6.90
2018-12-01T21:15:45.218Z,6.80
2018-12-01T21:18:16.462Z,6.80
2018-12-01T21:20:46.645Z,6.80
2018-12-01T21:23:18.240Z,6.80
2018-12-01T21:25:47.677Z,6.80
2018-12-01T21:28:17.809Z,6.90
2018-12-01T21:30:48.303Z,6.90
2018-12-01T21:33:30.446Z,7.00
2018-12-01T21:36:02.820Z,7.00
2018-12-01T21:38:32.170Z,7.00
2018-12-01T21:41:01.868Z,7.10
2018-12-01T21:43:32.238Z,7.10
2018-12-01T21:46:03.815Z,7.10
2018-12-01T21:48:33.188Z,7.10
2018-12-01T21:51:03.703Z,7.20
2018-12-01T21:53:34.895Z,7.20
2018-12-01T21:56:04.299Z,7.20
2018-12-01T21:58:33.541Z,7.20
2018-12-01T22:01:06.566Z,7.20
2018-12-01T22:03:36.309Z,7.20
2018-12-01T22:06:09.973Z,7.20
2018-12-01T22:08:39.131Z,7.20
2018-12-01T22:11:13.471Z,7.30
2018-12-01T22:13:43.392Z,7.30
2018-12-01T22:16:15.409Z,7.20
2018-12-01T22:18:46.637Z,7.30
2018-12-01T22:21:16.173Z,7.30
2018-12-01T22:23:45.153Z,7.20
2018-12-01T22:26:27.471Z,7.30
2018-12-01T22:28:56.570Z,7.30
2018-12-01T22:31:26.668Z,7.30
2018-12-01T22:33:59.408Z,7.30
2018-12-01T22:36:29.667Z,7.30
2018-12-01T22:39:00.317Z,7.30
2018-12-01T22:41:29.905Z,7.30
2018-12-01T22:43:58.793Z,7.30
2018-12-01T22:46:28.585Z,7.30
2018-12-01T22:48:57.458Z,7.40
2018-12-01T22:51:27.364Z,7.30
2018-12-01T22:53:57.580Z,7.30
2018-12-01T22:56:28.933Z,7.30
2018-12-01T22:58:56.958Z,7.30
2018-12-01T23:01:28.886Z,7.20
2018-12-01T23:03:58.587Z,7.20
2018-12-01T23:06:29.012Z,7.10
2018-12-01T23:08:58.627Z,7.10
2018-12-01T23:11:30.308Z,7.00
2018-12-01T23:16:21.322Z,7.00
2018-12-01T23:18:51.518Z,7.00
2018-12-01T23:21:20.671Z,7.00
2018-12-01T23:23:51.523Z,7.00
2018-12-01T23:26:23.417Z,7.00
2018-12-01T23:28:53.791Z,6.90
2018-12-01T23:31:22.660Z,6.90
2018-12-01T23:33:52.223Z,6.90
2018-12-01T23:36:21.092Z,7.00
2018-12-01T23:38:50.139Z,7.00
2018-12-01T23:41:18.977Z,7.00
2018-12-01T23:43:49.101Z,7.00
2018-12-01T23:46:17.980Z,7.00
2018-12-01T23:48:47.605Z,6.90
2018-12-01T23:51:17.677Z,6.90
2018-12-01T23:53:51.983Z,7.00
2018-12-01T23:56:31.454Z,7.00
2018-12-01T23:59:00.675Z,6.90
